»·PEaware :: N576TB U14-KOGD

N576TB :: U14-KOGD

FLIGHT INFORMATION

Flight Status: Arrived
Operator: Privately registered:
United States
More flights under this callsign
Pilot: Anonymous 8274 (8274)
Aircraft: BEECH AIRCRAFT DEBONAIR BONANZA
(BE33)
More flights by this aircraft type
Origin: U14 Nephi Mun
United States
Destination: KOGD Ogden-Hinckley
United States
More flights between these airports :: More routes between these airports
Route: +
File this flight plan on PilotEdge
Remarks:
Altitude:
(Current/Filed)
8,500ft
Speed:
(Current/Filed)
160kts
Departed: 14-Oct-18 12:29 PM
Arrived: 14-Oct-18 01:18 PM
Distance/Time
Traveled:
88nm/0:49
Distance/Time
To Go:
Arrived

Flight Plot

Page will automatically refresh every two minutes.

Flight plan parsing failed; only flown route is shown


Map Options




Map Legend


Flown Route
Filed Route
Departure Airport
Arrival Airport
Navaid (VOR, NDB)
Fix

Horizontal Profiles

Position Reports

Time Latitude Longitude Heading Altitude Ground
Speed
14-Oct-18 12:23 39.738317 -111.867364 354 5005ft 0kts
14-Oct-18 12:24 39.738317 -111.867364 354 5005ft 0kts
14-Oct-18 12:25 39.738317 -111.867364 354 5005ft 0kts
14-Oct-18 12:26 39.738317 -111.867364 354 5005ft 0kts
14-Oct-18 12:27 39.737714 -111.867664 268 5006ft 8kts
14-Oct-18 12:28 39.734464 -111.868619 180 5009ft 20kts
14-Oct-18 12:29 39.727967 -111.868978 267 5014ft 0kts
14-Oct-18 12:30 39.728538 -111.870038 355 5010ft 23kts
14-Oct-18 12:31 39.748716 -111.870944 357 5543ft 83kts
14-Oct-18 12:32 39.773186 -111.869276 5 6177ft 94kts
14-Oct-18 12:33 39.799867 -111.864047 4 6785ft 100kts
14-Oct-18 12:34 39.828266 -111.858593 5 7392ft 105kts
14-Oct-18 12:35 39.857129 -111.848530 13 7996ft 108kts
14-Oct-18 12:36 39.885979 -111.837161 13 8499ft 114kts
14-Oct-18 12:37 39.920502 -111.823774 13 8501ft 138kts
14-Oct-18 12:38 39.956040 -111.802936 47 8463ft 148kts
14-Oct-18 12:39 39.983259 -111.762607 45 8462ft 148kts
14-Oct-18 12:40 40.010372 -111.722292 45 8463ft 148kts
14-Oct-18 12:41 40.037704 -111.681672 45 8462ft 149kts
14-Oct-18 12:42 40.063394 -111.639509 56 8460ft 150kts
14-Oct-18 12:43 40.084490 -111.592420 56 8463ft 150kts
14-Oct-18 12:44 40.110706 -111.556813 3 8465ft 144kts
14-Oct-18 12:45 40.143817 -111.579893 320 8465ft 143kts
14-Oct-18 12:46 40.176127 -111.610818 331 8463ft 144kts
14-Oct-18 12:47 40.211257 -111.635234 331 8463ft 144kts
14-Oct-18 12:48 40.246454 -111.659711 331 8462ft 143kts
14-Oct-18 12:49 40.281688 -111.684183 331 8462ft 143kts
14-Oct-18 12:50 40.316821 -111.708575 331 8462ft 143kts
14-Oct-18 12:51 40.352067 -111.733037 331 8465ft 144kts
14-Oct-18 12:52 40.381603 -111.767004 308 8462ft 144kts
14-Oct-18 12:53 40.405716 -111.808588 307 8478ft 142kts
14-Oct-18 12:54 40.429007 -111.849732 308 8490ft 140kts
14-Oct-18 12:55 40.453205 -111.889189 330 8483ft 139kts
14-Oct-18 12:56 40.482193 -111.865372 82 8367ft 157kts
14-Oct-18 12:57 40.452405 -111.833737 196 7845ft 160kts
14-Oct-18 12:58 40.438720 -111.876792 298 7488ft 136kts
14-Oct-18 12:59 40.470742 -111.893823 12 7491ft 142kts
14-Oct-18 13:00 40.508997 -111.886208 330 7492ft 141kts
14-Oct-18 13:01 40.545707 -111.904603 347 7488ft 143kts
14-Oct-18 13:02 40.585168 -111.910554 355 7489ft 144kts
14-Oct-18 13:03 40.625284 -111.911530 355 7490ft 146kts
14-Oct-18 13:04 40.665991 -111.907764 6 7487ft 149kts
14-Oct-18 13:05 40.706931 -111.899253 0 7492ft 148kts
14-Oct-18 13:06 40.740915 -111.897009 355 7488ft 147kts
14-Oct-18 13:07 40.788623 -111.896689 354 7490ft 147kts
14-Oct-18 13:08 40.828452 -111.904467 350 7491ft 146kts
14-Oct-18 13:09 40.862158 -111.909367 349 7490ft 146kts
14-Oct-18 13:10 40.909996 -111.905045 2 7489ft 151kts
14-Oct-18 13:11 40.944909 -111.899673 2 7490ft 152kts
14-Oct-18 13:12 40.986762 -111.897317 334 7490ft 149kts
14-Oct-18 13:13 41.025384 -111.934884 320 7462ft 148kts
14-Oct-18 13:14 41.053056 -111.960865 327 7461ft 147kts
14-Oct-18 13:15 41.093295 -111.994987 327 7459ft 147kts
14-Oct-18 13:16 41.120677 -112.017282 327 7107ft 143kts
14-Oct-18 13:17 41.150632 -112.038233 329 5947ft 101kts
14-Oct-18 13:18 41.174215 -112.040166 44 5186ft 93kts
14-Oct-18 13:19 41.191260 -112.016561 38 4433ft 64kts
14-Oct-18 13:20 41.193985 -112.011118 106 4433ft 0kts
14-Oct-18 13:21 41.194699 -112.009039 70 4433ft 11kts

Navigation Log

Ident Type
Flight plan parsing failed, navigation log unavailable